createdAt,value
2018-05-06T00:00:18.127Z,16.26
2018-05-06T00:01:18.110Z,16.33
2018-05-06T00:02:18.089Z,16.23
2018-05-06T00:03:18.070Z,16.25
2018-05-06T00:04:18.055Z,16.22
2018-05-06T00:05:18.039Z,16.14
2018-05-06T00:06:18.014Z,16.18
2018-05-06T00:07:17.996Z,16.18
2018-05-06T00:08:17.977Z,16.22
2018-05-06T00:09:17.959Z,16.12
2018-05-06T00:10:17.939Z,16.20
2018-05-06T00:11:17.920Z,16.03
2018-05-06T00:12:17.901Z,16.07
2018-05-06T00:13:17.887Z,16.03
2018-05-06T00:14:17.868Z,16.03
2018-05-06T00:15:17.922Z,16.09
2018-05-06T00:16:17.827Z,16.12
2018-05-06T00:17:17.808Z,16.04
2018-05-06T00:18:17.787Z,16.14
2018-05-06T00:19:17.770Z,16.15
2018-05-06T00:20:17.752Z,16.11
2018-05-06T00:21:17.733Z,16.22
2018-05-06T00:22:17.712Z,16.20
2018-05-06T00:23:17.693Z,16.18
2018-05-06T00:24:17.676Z,16.12
2018-05-06T00:25:17.655Z,16.20
2018-05-06T00:26:17.639Z,16.15
2018-05-06T00:27:17.617Z,16.18
2018-05-06T00:28:17.598Z,16.06
2018-05-06T00:29:17.582Z,16.01
2018-05-06T00:30:17.561Z,15.99
2018-05-06T00:31:17.542Z,15.93
2018-05-06T00:32:17.525Z,15.97
2018-05-06T00:33:17.505Z,15.94
2018-05-06T00:34:17.483Z,15.89
2018-05-06T00:35:17.466Z,15.92
2018-05-06T00:36:17.447Z,15.89
2018-05-06T00:37:17.429Z,15.92
2018-05-06T00:38:17.420Z,15.92
2018-05-06T00:39:17.392Z,15.85
2018-05-06T00:40:17.371Z,15.84
2018-05-06T00:41:17.352Z,15.79
2018-05-06T00:42:17.332Z,15.79
2018-05-06T00:43:17.315Z,15.88
2018-05-06T00:44:17.293Z,15.81
2018-05-06T00:45:17.275Z,15.86
2018-05-06T00:46:17.291Z,15.76
2018-05-06T00:47:17.236Z,15.72
2018-05-06T00:48:17.216Z,15.70
2018-05-06T00:49:17.199Z,15.75
2018-05-06T00:50:17.179Z,15.81
2018-05-06T00:51:17.160Z,15.68
2018-05-06T00:52:17.141Z,15.72
2018-05-06T00:53:17.129Z,15.67
2018-05-06T00:54:17.102Z,15.74
2018-05-06T00:55:17.082Z,15.67
2018-05-06T00:56:17.064Z,15.70
2018-05-06T00:57:17.050Z,15.72
2018-05-06T00:58:17.025Z,15.61
2018-05-06T00:59:17.006Z,15.59
2018-05-06T01:00:16.987Z,15.60
2018-05-06T01:01:16.972Z,15.52
2018-05-06T01:02:16.947Z,15.63
2018-05-06T01:03:17.678Z,15.56
2018-05-06T01:04:16.910Z,15.54
2018-05-06T01:05:16.890Z,15.52
2018-05-06T01:06:16.871Z,15.51
2018-05-06T01:07:16.852Z,15.43
2018-05-06T01:08:16.832Z,15.49
2018-05-06T01:09:16.813Z,15.48
2018-05-06T01:10:16.792Z,15.48
2018-05-06T01:11:16.785Z,15.51
2018-05-06T01:12:16.758Z,15.51
2018-05-06T01:13:16.734Z,15.45
2018-05-06T01:14:16.718Z,15.49
2018-05-06T01:15:16.697Z,15.48
2018-05-06T01:16:16.677Z,15.45
2018-05-06T01:17:16.662Z,15.49
2018-05-06T01:18:16.643Z,15.48
2018-05-06T01:19:16.617Z,15.52
2018-05-06T01:20:16.599Z,15.46
2018-05-06T01:21:16.580Z,15.42
2018-05-06T01:22:16.561Z,15.46
2018-05-06T01:23:16.540Z,15.49
2018-05-06T01:24:16.521Z,15.48
2018-05-06T01:25:16.501Z,15.48
2018-05-06T01:26:16.481Z,15.48
2018-05-06T01:27:16.461Z,15.46
2018-05-06T01:28:16.443Z,15.46
2018-05-06T01:29:16.427Z,15.45
2018-05-06T01:30:16.402Z,15.49
2018-05-06T01:31:16.395Z,15.51
2018-05-06T01:32:16.363Z,15.42
2018-05-06T01:33:16.346Z,15.48
2018-05-06T01:34:16.324Z,15.49
2018-05-06T01:35:16.306Z,15.52
2018-05-06T01:36:16.287Z,15.45
2018-05-06T01:37:16.270Z,15.42
2018-05-06T01:38:16.245Z,15.45
2018-05-06T01:39:16.227Z,15.43
2018-05-06T01:40:16.208Z,15.38
2018-05-06T01:41:16.192Z,15.30
2018-05-06T01:42:16.174Z,15.38
2018-05-06T01:43:16.147Z,15.39
2018-05-06T01:44:16.128Z,15.31
2018-05-06T01:45:16.107Z,15.30
2018-05-06T01:46:16.088Z,15.27
2018-05-06T01:47:16.069Z,15.30
2018-05-06T01:48:16.048Z,15.30
2018-05-06T01:49:16.030Z,15.33
2018-05-06T01:50:16.012Z,15.45
2018-05-06T01:51:15.990Z,15.39
2018-05-06T01:52:15.973Z,15.42
2018-05-06T01:53:15.952Z,15.31
2018-05-06T01:54:16.681Z,15.36
2018-05-06T01:55:15.913Z,15.35
2018-05-06T01:56:15.894Z,15.39
2018-05-06T01:57:15.870Z,15.43
2018-05-06T01:58:15.850Z,15.45
2018-05-06T01:59:15.830Z,15.41
2018-05-06T02:00:15.811Z,15.33
2018-05-06T02:01:15.795Z,15.33
2018-05-06T02:02:15.772Z,15.38
2018-05-06T02:03:15.751Z,15.28
2018-05-06T02:04:15.736Z,15.33
2018-05-06T02:05:16.462Z,15.30
2018-05-06T02:06:15.691Z,15.39
2018-05-06T02:07:15.672Z,15.30
2018-05-06T02:08:15.654Z,15.28
2018-05-06T02:09:15.693Z,15.28
2018-05-06T02:10:15.612Z,15.24
2018-05-06T02:11:15.595Z,15.31
2018-05-06T02:12:15.572Z,15.19
2018-05-06T02:13:15.553Z,15.21
2018-05-06T02:14:15.531Z,15.23
2018-05-06T02:15:15.512Z,15.26
2018-05-06T02:16:15.500Z,15.19
2018-05-06T02:17:15.473Z,15.24
2018-05-06T02:18:15.455Z,15.20
2018-05-06T02:19:15.431Z,15.09
2018-05-06T02:20:15.412Z,15.21
2018-05-06T02:21:15.394Z,15.11
2018-05-06T02:22:15.374Z,15.13
2018-05-06T02:23:15.353Z,15.09
2018-05-06T02:24:15.333Z,15.05
2018-05-06T02:25:15.313Z,15.08
2018-05-06T02:26:15.293Z,15.03
2018-05-06T02:27:15.272Z,15.02
2018-05-06T02:28:15.253Z,14.99
2018-05-06T02:29:15.234Z,15.02
2018-05-06T02:30:15.268Z,14.99
2018-05-06T02:31:15.201Z,15.03
2018-05-06T02:32:15.173Z,15.01
2018-05-06T02:33:15.154Z,15.01
2018-05-06T02:34:15.134Z,14.87
2018-05-06T02:35:15.113Z,14.95
2018-05-06T02:36:15.096Z,14.99
2018-05-06T02:37:15.073Z,14.88
2018-05-06T02:38:15.052Z,14.90
2018-05-06T02:39:15.032Z,14.93
2018-05-06T02:40:15.014Z,14.88
2018-05-06T02:41:14.992Z,14.90
2018-05-06T02:42:15.723Z,14.93
2018-05-06T02:43:14.953Z,14.94
2018-05-06T02:44:14.932Z,14.86
2018-05-06T02:45:14.912Z,14.71
2018-05-06T02:46:14.893Z,14.72
2018-05-06T02:47:14.872Z,14.71
2018-05-06T02:48:14.852Z,14.56
2018-05-06T02:49:14.833Z,14.64
2018-05-06T02:50:14.812Z,14.64
2018-05-06T02:51:14.792Z,14.54
2018-05-06T02:52:14.773Z,14.62
2018-05-06T02:53:14.754Z,14.60
2018-05-06T02:54:14.732Z,14.53
2018-05-06T02:55:14.712Z,14.57
2018-05-06T02:56:14.692Z,14.62
2018-05-06T02:57:14.673Z,14.57
2018-05-06T02:58:14.652Z,14.61
2018-05-06T02:59:14.632Z,14.57
2018-05-06T03:00:14.612Z,14.60
2018-05-06T03:01:14.594Z,14.50
2018-05-06T03:02:14.572Z,14.49
2018-05-06T03:03:14.552Z,14.52
2018-05-06T03:04:14.533Z,14.53
2018-05-06T03:05:14.512Z,14.43
2018-05-06T03:06:14.493Z,14.32
2018-05-06T03:07:14.473Z,14.32
2018-05-06T03:08:14.455Z,14.29
2018-05-06T03:09:14.438Z,14.29
2018-05-06T03:10:14.413Z,14.19
2018-05-06T03:11:14.393Z,14.17
2018-05-06T03:12:14.372Z,14.14
2018-05-06T03:13:14.352Z,14.04
2018-05-06T03:14:14.332Z,14.13
2018-05-06T03:15:14.312Z,14.02
2018-05-06T03:16:14.292Z,14.02
2018-05-06T03:17:14.273Z,13.99
2018-05-06T03:18:14.253Z,13.95
2018-05-06T03:19:14.232Z,13.99
2018-05-06T03:20:14.213Z,13.84
2018-05-06T03:21:14.193Z,13.89
2018-05-06T03:22:14.173Z,13.87
2018-05-06T03:23:14.152Z,13.83
2018-05-06T03:24:14.133Z,13.76
2018-05-06T03:25:14.113Z,13.74
2018-05-06T03:26:14.092Z,13.83
2018-05-06T03:27:14.072Z,13.71
2018-05-06T03:28:14.052Z,13.80
2018-05-06T03:29:14.033Z,13.70
2018-05-06T03:30:14.012Z,13.76
2018-05-06T03:31:13.992Z,13.67
2018-05-06T03:32:13.971Z,13.77
2018-05-06T03:33:13.951Z,13.71
2018-05-06T03:34:13.930Z,13.74
2018-05-06T03:35:13.911Z,13.74
2018-05-06T03:36:13.892Z,13.70
2018-05-06T03:37:13.872Z,13.73
2018-05-06T03:38:13.849Z,13.83
2018-05-06T03:39:13.829Z,13.89
2018-05-06T03:40:13.814Z,13.92
2018-05-06T03:41:13.791Z,13.92
2018-05-06T03:42:13.774Z,13.89
2018-05-06T03:43:13.749Z,13.91
2018-05-06T03:44:13.729Z,14.02
2018-05-06T03:45:13.708Z,13.99
2018-05-06T03:46:13.689Z,14.06
2018-05-06T03:47:13.668Z,13.98
2018-05-06T03:48:13.649Z,14.04
2018-05-06T03:49:13.628Z,14.07
2018-05-06T03:50:13.607Z,14.13
2018-05-06T03:51:13.588Z,14.10
2018-05-06T03:52:13.566Z,14.16
2018-05-06T03:53:13.548Z,14.14
2018-05-06T03:54:13.527Z,14.02
2018-05-06T03:55:14.257Z,14.07
2018-05-06T03:56:13.486Z,14.10
2018-05-06T03:57:13.465Z,14.16
2018-05-06T03:58:13.445Z,14.19
2018-05-06T03:59:13.424Z,14.19
2018-05-06T04:00:13.404Z,14.06
2018-05-06T04:01:13.384Z,14.20
2018-05-06T04:02:13.363Z,14.14
2018-05-06T04:03:13.343Z,14.19
2018-05-06T04:04:13.324Z,14.19
2018-05-06T04:05:13.302Z,14.17
2018-05-06T04:06:13.280Z,14.24
2018-05-06T04:07:13.260Z,14.20
2018-05-06T04:08:13.240Z,14.21
2018-05-06T04:09:13.221Z,14.21
2018-05-06T04:10:13.198Z,14.21
2018-05-06T04:11:13.178Z,14.19
2018-05-06T04:12:13.158Z,14.19
2018-05-06T04:13:13.139Z,14.21
2018-05-06T04:14:13.117Z,14.25
2018-05-06T04:15:13.100Z,14.25
2018-05-06T04:16:13.075Z,14.13
2018-05-06T04:17:13.056Z,14.14
2018-05-06T04:18:13.037Z,14.13
2018-05-06T04:19:13.013Z,14.14
2018-05-06T04:20:12.994Z,14.16
2018-05-06T04:21:12.976Z,14.12
2018-05-06T04:22:12.952Z,14.10
2018-05-06T04:23:12.931Z,14.14
2018-05-06T04:24:12.911Z,14.20
2018-05-06T04:25:12.891Z,14.19
2018-05-06T04:26:12.869Z,14.25
2018-05-06T04:27:12.851Z,14.24
2018-05-06T04:28:12.830Z,14.25
2018-05-06T04:29:12.811Z,14.24
2018-05-06T04:30:12.788Z,14.19
2018-05-06T04:31:12.767Z,14.21
2018-05-06T04:32:12.748Z,14.21
2018-05-06T04:33:12.731Z,14.25
2018-05-06T04:34:12.707Z,14.17
2018-05-06T04:35:12.687Z,14.24
2018-05-06T04:36:12.665Z,14.27
2018-05-06T04:37:12.647Z,14.27
2018-05-06T04:38:12.625Z,14.19
2018-05-06T04:39:12.605Z,14.19
2018-05-06T04:40:12.589Z,14.19
2018-05-06T04:41:12.570Z,14.32
2018-05-06T04:42:14.044Z,14.24
2018-05-06T04:43:12.526Z,14.32
2018-05-06T04:44:12.570Z,14.27
2018-05-06T04:45:12.482Z,14.21
2018-05-06T04:46:12.461Z,14.29
2018-05-06T04:47:12.440Z,14.31
2018-05-06T04:48:12.421Z,14.29
2018-05-06T04:49:12.399Z,14.32
2018-05-06T04:50:12.378Z,14.31
2018-05-06T04:51:12.361Z,14.34
2018-05-06T04:52:12.341Z,14.31
2018-05-06T04:53:12.317Z,14.29
2018-05-06T04:54:12.295Z,14.27
2018-05-06T04:55:12.275Z,14.31
2018-05-06T04:56:12.259Z,14.31
2018-05-06T04:57:12.236Z,14.31
2018-05-06T04:58:12.214Z,14.31
2018-05-06T04:59:12.193Z,14.29
2018-05-06T05:00:12.174Z,14.34
2018-05-06T05:01:12.152Z,14.28
2018-05-06T05:02:12.132Z,14.29
2018-05-06T05:03:12.113Z,14.32
2018-05-06T05:04:12.091Z,14.25
2018-05-06T05:05:12.072Z,14.31
2018-05-06T05:06:12.049Z,14.31
2018-05-06T05:07:12.032Z,14.31
2018-05-06T05:08:12.013Z,14.29
2018-05-06T05:09:11.990Z,14.43
2018-05-06T05:10:11.972Z,14.37
2018-05-06T05:11:11.948Z,14.35
2018-05-06T05:12:11.928Z,14.29
2018-05-06T05:13:11.907Z,14.39
2018-05-06T05:14:11.886Z,14.50
2018-05-06T05:15:11.866Z,14.46
2018-05-06T05:16:11.846Z,14.56
2018-05-06T05:17:11.826Z,14.57
2018-05-06T05:18:11.806Z,14.57
2018-05-06T05:19:11.788Z,14.54
2018-05-06T05:20:11.765Z,14.62
2018-05-06T05:21:11.746Z,14.65
2018-05-06T05:22:11.724Z,14.57
2018-05-06T05:23:11.704Z,14.61
2018-05-06T05:24:11.686Z,14.65
2018-05-06T05:25:11.667Z,14.67
2018-05-06T05:26:11.644Z,14.65
2018-05-06T05:27:11.624Z,14.78
2018-05-06T05:28:11.604Z,14.83
2018-05-06T05:29:11.584Z,14.69
2018-05-06T05:30:11.563Z,14.74
2018-05-06T05:31:11.543Z,14.74
2018-05-06T05:32:11.526Z,14.75
2018-05-06T05:33:11.504Z,14.81
2018-05-06T05:34:11.481Z,14.84
2018-05-06T05:35:11.462Z,14.83
2018-05-06T05:36:12.192Z,14.88
2018-05-06T05:37:11.422Z,14.87
2018-05-06T05:38:11.402Z,14.84
2018-05-06T05:39:11.382Z,14.88
2018-05-06T05:40:11.362Z,14.84
2018-05-06T05:41:11.342Z,14.91
2018-05-06T05:42:11.321Z,14.90
2018-05-06T05:43:11.302Z,14.91
2018-05-06T05:44:11.287Z,14.91
2018-05-06T05:45:11.261Z,14.94
2018-05-06T05:46:11.240Z,14.91
2018-05-06T05:47:11.222Z,14.94
2018-05-06T05:48:11.205Z,14.95
2018-05-06T05:49:11.182Z,14.99
2018-05-06T05:50:11.162Z,14.95
2018-05-06T05:51:11.146Z,14.93
2018-05-06T05:52:11.872Z,15.01
2018-05-06T05:53:11.101Z,14.99
2018-05-06T05:54:11.085Z,15.03
2018-05-06T05:55:11.062Z,15.03
2018-05-06T05:56:11.045Z,15.02
2018-05-06T05:57:11.023Z,15.02
2018-05-06T05:58:11.000Z,15.03
2018-05-06T05:59:10.981Z,15.05
2018-05-06T06:00:10.960Z,14.99
2018-05-06T06:01:10.942Z,15.02
2018-05-06T06:02:10.921Z,15.06
2018-05-06T06:03:10.901Z,15.12
2018-05-06T06:04:10.883Z,15.11
2018-05-06T06:05:10.862Z,15.21
2018-05-06T06:06:10.843Z,15.27
2018-05-06T06:07:10.822Z,15.31
2018-05-06T06:08:10.801Z,15.31
2018-05-06T06:09:10.782Z,15.31
2018-05-06T06:10:10.761Z,15.30
2018-05-06T06:11:10.744Z,15.42
2018-05-06T06:12:10.722Z,15.42
2018-05-06T06:13:10.707Z,15.45
2018-05-06T06:14:10.681Z,15.49
2018-05-06T06:15:10.666Z,15.48
2018-05-06T06:16:10.644Z,15.52
2018-05-06T06:17:10.623Z,15.48
2018-05-06T06:18:10.601Z,15.49
2018-05-06T06:19:10.582Z,15.43
2018-05-06T06:20:10.567Z,15.48
2018-05-06T06:21:10.545Z,15.52
2018-05-06T06:22:10.522Z,15.56
2018-05-06T06:23:10.505Z,15.60
2018-05-06T06:24:10.485Z,15.54
2018-05-06T06:25:10.465Z,15.57
2018-05-06T06:26:10.445Z,15.68
2018-05-06T06:27:10.434Z,15.60
2018-05-06T06:28:10.406Z,15.74
2018-05-06T06:29:11.138Z,15.75
2018-05-06T06:30:10.367Z,15.74
2018-05-06T06:31:10.348Z,15.76
2018-05-06T06:32:10.327Z,15.78
2018-05-06T06:33:10.307Z,15.79
2018-05-06T06:34:10.288Z,15.70
2018-05-06T06:35:10.268Z,15.75
2018-05-06T06:36:10.249Z,15.67
2018-05-06T06:37:10.230Z,15.74
2018-05-06T06:38:10.210Z,15.68
2018-05-06T06:39:10.191Z,15.70
2018-05-06T06:40:12.424Z,15.72
2018-05-06T06:41:10.153Z,15.82
2018-05-06T06:42:10.137Z,15.84
2018-05-06T06:43:10.114Z,15.78
2018-05-06T06:44:10.094Z,15.89
2018-05-06T06:45:10.075Z,15.75
2018-05-06T06:46:10.808Z,15.92
2018-05-06T06:47:10.037Z,15.99
2018-05-06T06:48:10.093Z,15.96
2018-05-06T06:49:10.000Z,16.00
2018-05-06T06:50:09.979Z,15.96
2018-05-06T06:51:09.960Z,16.03
2018-05-06T06:52:09.940Z,16.03
2018-05-06T06:53:09.922Z,16.20
2018-05-06T06:54:09.903Z,16.15
2018-05-06T06:55:09.882Z,16.22
2018-05-06T06:56:09.863Z,16.16
2018-05-06T06:57:09.849Z,16.20
2018-05-06T06:58:09.826Z,16.16
2018-05-06T06:59:09.807Z,16.16
2018-05-06T07:00:09.788Z,15.99
2018-05-06T07:01:09.770Z,16.14
2018-05-06T07:02:09.750Z,16.23
2018-05-06T07:03:09.737Z,16.35
2018-05-06T07:04:09.711Z,16.26
2018-05-06T07:05:09.692Z,16.31
2018-05-06T07:06:09.674Z,16.31
2018-05-06T07:07:09.656Z,16.23
2018-05-06T07:08:09.636Z,16.18
2018-05-06T07:09:09.618Z,16.25
2018-05-06T07:10:09.598Z,16.33
2018-05-06T07:11:09.581Z,16.58
2018-05-06T07:12:09.563Z,16.60
2018-05-06T07:13:11.045Z,16.63
2018-05-06T07:14:09.525Z,16.56
2018-05-06T07:15:09.511Z,16.58
2018-05-06T07:16:09.491Z,16.62
2018-05-06T07:17:09.473Z,16.70
2018-05-06T07:18:09.451Z,16.73
2018-05-06T07:19:09.434Z,16.75
2018-05-06T07:20:09.417Z,16.80
2018-05-06T07:21:09.395Z,16.92
2018-05-06T07:22:09.376Z,16.89
2018-05-06T07:23:09.358Z,16.95
2018-05-06T07:24:09.341Z,16.70
2018-05-06T07:25:09.322Z,16.56
2018-05-06T07:26:09.304Z,16.53
2018-05-06T07:27:09.285Z,16.45
2018-05-06T07:28:09.271Z,16.48
2018-05-06T07:29:09.250Z,16.58
2018-05-06T07:30:09.231Z,16.55
2018-05-06T07:31:09.213Z,16.53
2018-05-06T07:32:09.197Z,16.60
2018-05-06T07:33:09.181Z,16.60
2018-05-06T07:34:09.159Z,16.68
2018-05-06T07:35:09.143Z,16.80
2018-05-06T07:36:09.123Z,16.80
2018-05-06T07:37:09.108Z,16.86
2018-05-06T07:38:09.086Z,16.68
2018-05-06T07:39:09.068Z,16.58
2018-05-06T07:40:09.050Z,16.65
2018-05-06T07:41:09.036Z,16.56
2018-05-06T07:42:09.014Z,16.49
2018-05-06T07:43:08.996Z,16.41
2018-05-06T07:44:08.979Z,16.40
2018-05-06T07:45:08.961Z,16.45
2018-05-06T07:46:09.693Z,16.58
2018-05-06T07:47:08.924Z,16.63
2018-05-06T07:48:08.909Z,16.68
2018-05-06T07:49:08.990Z,16.73
2018-05-06T07:50:08.874Z,16.65
2018-05-06T07:51:08.853Z,16.73
2018-05-06T07:52:08.835Z,16.78
2018-05-06T07:53:08.817Z,16.80
2018-05-06T07:54:08.801Z,16.81
2018-05-06T07:55:08.780Z,16.81
2018-05-06T07:56:08.761Z,16.73
2018-05-06T07:57:08.745Z,16.80
2018-05-06T07:58:08.727Z,16.60
2018-05-06T07:59:08.712Z,16.62
2018-05-06T08:00:08.690Z,16.58
2018-05-06T08:01:08.674Z,16.56
2018-05-06T08:02:08.654Z,16.52
2018-05-06T08:03:08.636Z,16.62
2018-05-06T08:04:08.620Z,16.71
2018-05-06T08:05:08.601Z,16.71
2018-05-06T08:06:08.583Z,16.68
2018-05-06T08:07:08.566Z,16.74
2018-05-06T08:08:08.552Z,16.77
2018-05-06T08:09:08.530Z,16.93
2018-05-06T08:10:08.515Z,16.96
2018-05-06T08:11:08.497Z,17.00
2018-05-06T08:12:08.477Z,17.08
2018-05-06T08:13:08.457Z,17.08
2018-05-06T08:14:08.441Z,17.04
2018-05-06T08:15:08.422Z,17.17
2018-05-06T08:16:08.404Z,17.22
2018-05-06T08:17:08.388Z,17.13
2018-05-06T08:18:08.420Z,17.07
2018-05-06T08:19:08.351Z,17.03
2018-05-06T08:20:08.339Z,16.99
2018-05-06T08:21:08.316Z,17.11
2018-05-06T08:22:08.299Z,16.98
2018-05-06T08:23:08.282Z,17.08
2018-05-06T08:24:09.015Z,17.08
2018-05-06T08:25:08.248Z,16.95
2018-05-06T08:26:08.228Z,16.96
2018-05-06T08:27:08.216Z,17.03
2018-05-06T08:28:08.198Z,17.07
2018-05-06T08:29:08.182Z,17.10
2018-05-06T08:30:08.160Z,17.25
2018-05-06T08:31:08.175Z,17.22
2018-05-06T08:32:08.126Z,17.29
2018-05-06T08:33:08.108Z,17.29
2018-05-06T08:34:08.093Z,17.40
2018-05-06T08:35:08.073Z,17.53
2018-05-06T08:36:08.056Z,17.67
2018-05-06T08:37:08.044Z,17.55
2018-05-06T08:38:08.022Z,17.66
2018-05-06T08:39:08.004Z,17.64
2018-05-06T08:40:07.988Z,17.59
2018-05-06T08:41:07.971Z,17.62
2018-05-06T08:42:07.953Z,17.78
2018-05-06T08:43:07.936Z,17.67
2018-05-06T08:44:07.920Z,17.84
2018-05-06T08:45:07.902Z,17.71
2018-05-06T08:46:07.886Z,17.76
2018-05-06T08:47:07.869Z,17.84
2018-05-06T08:48:07.852Z,17.89
2018-05-06T08:49:07.835Z,17.87
2018-05-06T08:50:07.819Z,17.76
2018-05-06T08:51:07.801Z,17.78
2018-05-06T08:52:07.784Z,17.71
2018-05-06T08:53:07.772Z,17.69
2018-05-06T08:54:07.751Z,17.78
2018-05-06T08:55:07.735Z,17.81
2018-05-06T08:56:07.718Z,17.94
2018-05-06T08:57:07.703Z,18.00
2018-05-06T08:58:07.684Z,18.03
2018-05-06T08:59:07.668Z,18.03
2018-05-06T09:00:07.652Z,18.15
2018-05-06T09:01:07.636Z,18.22
2018-05-06T09:02:07.619Z,18.09
2018-05-06T09:03:07.603Z,18.19
2018-05-06T09:04:07.788Z,18.39
2018-05-06T09:05:07.571Z,18.43
2018-05-06T09:06:07.557Z,18.46
2018-05-06T09:07:07.541Z,18.49
2018-05-06T09:08:07.521Z,18.43
2018-05-06T09:09:07.506Z,18.39
2018-05-06T09:10:07.492Z,18.37
2018-05-06T09:11:07.490Z,18.34
2018-05-06T09:12:07.457Z,18.31
2018-05-06T09:13:07.440Z,18.18
2018-05-06T09:14:07.425Z,18.09
2018-05-06T09:15:07.407Z,18.07
2018-05-06T09:16:07.392Z,17.84
2018-05-06T09:17:07.376Z,17.84
2018-05-06T09:18:07.359Z,17.89
2018-05-06T09:19:07.344Z,17.87
2018-05-06T09:20:07.326Z,18.04
2018-05-06T09:21:07.311Z,18.04
2018-05-06T09:22:09.545Z,17.88
2018-05-06T09:23:07.278Z,17.88
2018-05-06T09:24:07.262Z,17.85
2018-05-06T09:25:07.246Z,17.81
2018-05-06T09:26:07.228Z,17.87
2018-05-06T09:27:07.212Z,18.00
2018-05-06T09:28:10.198Z,18.00
2018-05-06T09:29:07.183Z,18.02
2018-05-06T09:30:07.162Z,17.89
2018-05-06T09:31:07.146Z,18.09
2018-05-06T09:32:07.130Z,18.17
2018-05-06T09:33:07.116Z,18.22
2018-05-06T09:34:12.356Z,18.34
2018-05-06T09:35:07.082Z,18.31
2018-05-06T09:36:07.067Z,18.46
2018-05-06T09:37:07.073Z,18.40
2018-05-06T09:38:07.041Z,18.36
2018-05-06T09:39:07.019Z,18.24
2018-05-06T09:40:09.254Z,18.10
2018-05-06T09:41:06.985Z,17.92
2018-05-06T09:42:06.969Z,17.88
2018-05-06T09:43:06.952Z,17.88
2018-05-06T09:44:06.936Z,17.84
2018-05-06T09:45:06.922Z,17.78
2018-05-06T09:46:11.408Z,17.88
2018-05-06T09:47:06.888Z,17.97
2018-05-06T09:48:06.877Z,17.94
2018-05-06T09:49:06.857Z,18.17
2018-05-06T09:50:06.926Z,18.03
2018-05-06T09:51:06.828Z,18.09
2018-05-06T09:52:06.813Z,17.99
2018-05-06T09:53:06.791Z,18.13
2018-05-06T09:54:06.774Z,18.39
2018-05-06T09:55:06.759Z,18.52
2018-05-06T09:56:06.744Z,18.70
2018-05-06T09:57:06.734Z,18.37
2018-05-06T09:58:06.716Z,18.39
2018-05-06T09:59:06.696Z,18.58
2018-05-06T10:00:06.681Z,18.67
2018-05-06T10:01:06.664Z,18.49
2018-05-06T10:02:06.647Z,18.61
2018-05-06T10:03:06.633Z,18.72
2018-05-06T10:04:06.618Z,18.83
2018-05-06T10:05:06.603Z,18.80
2018-05-06T10:06:06.585Z,18.98
2018-05-06T10:07:06.569Z,19.05
2018-05-06T10:08:06.555Z,19.11
2018-05-06T10:09:06.539Z,18.98
2018-05-06T10:10:06.524Z,19.01
2018-05-06T10:11:06.508Z,19.06
2018-05-06T10:12:06.494Z,19.18
2018-05-06T10:13:06.478Z,19.14
2018-05-06T10:14:06.462Z,19.31
2018-05-06T10:15:06.449Z,19.35
2018-05-06T10:16:06.433Z,19.70
2018-05-06T10:17:06.419Z,19.33
2018-05-06T10:18:06.402Z,19.33
2018-05-06T10:19:06.387Z,19.32
2018-05-06T10:20:06.372Z,19.08
2018-05-06T10:21:06.358Z,19.24
2018-05-06T10:22:06.342Z,19.21
2018-05-06T10:23:06.327Z,19.08
2018-05-06T10:24:06.312Z,18.97
2018-05-06T10:25:06.299Z,19.10
2018-05-06T10:26:06.301Z,19.31
2018-05-06T10:27:06.268Z,19.23
2018-05-06T10:28:06.333Z,18.59
2018-05-06T10:29:06.238Z,18.67
2018-05-06T10:30:06.223Z,18.98
2018-05-06T10:31:06.207Z,19.08
2018-05-06T10:32:06.192Z,18.92
2018-05-06T10:33:06.177Z,19.20
2018-05-06T10:34:06.164Z,19.28
2018-05-06T10:35:06.148Z,19.48
2018-05-06T10:36:06.132Z,19.54
2018-05-06T10:37:06.116Z,19.72
2018-05-06T10:38:06.101Z,19.68
2018-05-06T10:39:06.086Z,19.94
2018-05-06T10:40:06.073Z,19.91
2018-05-06T10:41:06.055Z,20.09
2018-05-06T10:42:06.039Z,19.84
2018-05-06T10:43:06.024Z,19.72
2018-05-06T10:44:06.095Z,19.84
2018-05-06T10:45:08.248Z,19.48
2018-05-06T10:46:05.980Z,19.61
2018-05-06T10:47:06.001Z,19.58
2018-05-06T10:48:05.950Z,19.33
2018-05-06T10:49:05.960Z,19.38
2018-05-06T10:50:05.922Z,19.61
2018-05-06T10:51:05.907Z,19.80
2018-05-06T10:52:05.888Z,20.00
2018-05-06T10:53:05.873Z,19.87
2018-05-06T10:54:05.858Z,20.05
2018-05-06T10:55:05.850Z,20.18
2018-05-06T10:56:05.828Z,20.18
2018-05-06T10:57:05.813Z,20.24
2018-05-06T10:58:05.799Z,20.20
2018-05-06T10:59:05.781Z,19.97
2018-05-06T11:00:05.767Z,20.03
2018-05-06T11:01:05.753Z,20.13
2018-05-06T11:02:05.785Z,20.15
2018-05-06T11:03:05.721Z,20.08
2018-05-06T11:04:05.785Z,20.00
2018-05-06T11:05:05.691Z,19.79
2018-05-06T11:06:05.674Z,19.91
2018-05-06T11:07:05.658Z,20.06
2018-05-06T11:08:05.642Z,20.15
2018-05-06T11:09:05.629Z,20.24
2018-05-06T11:10:05.616Z,20.33
2018-05-06T11:11:05.597Z,20.25
2018-05-06T11:12:05.584Z,20.24
2018-05-06T11:13:05.567Z,20.42
2018-05-06T11:14:05.551Z,20.51
2018-05-06T11:15:05.536Z,20.54
2018-05-06T11:16:05.519Z,20.56
2018-05-06T11:17:05.505Z,20.34
2018-05-06T11:18:05.487Z,20.41
2018-05-06T11:19:05.478Z,20.31
2018-05-06T11:20:05.461Z,20.25
2018-05-06T11:21:05.443Z,20.34
2018-05-06T11:22:10.682Z,20.54
2018-05-06T11:23:05.409Z,20.54
2018-05-06T11:24:05.394Z,20.38
2018-05-06T11:25:05.382Z,20.38
2018-05-06T11:26:05.362Z,20.49
2018-05-06T11:27:05.348Z,20.54
2018-05-06T11:28:06.834Z,20.69
2018-05-06T11:29:05.316Z,20.84
2018-05-06T11:30:05.304Z,20.81
2018-05-06T11:31:05.283Z,20.74
2018-05-06T11:32:05.268Z,20.87
2018-05-06T11:33:05.257Z,21.14
2018-05-06T11:34:05.237Z,21.26
2018-05-06T11:35:05.224Z,21.29
2018-05-06T11:36:05.208Z,21.38
2018-05-06T11:37:05.191Z,21.41
2018-05-06T11:38:05.173Z,21.42
2018-05-06T11:39:05.163Z,21.38
2018-05-06T11:40:05.148Z,21.26
2018-05-06T11:41:05.156Z,21.48
2018-05-06T11:42:05.111Z,21.69
2018-05-06T11:43:05.096Z,21.59
2018-05-06T11:44:05.082Z,21.64
2018-05-06T11:45:05.067Z,21.75
2018-05-06T11:46:05.051Z,21.75
2018-05-06T11:47:05.036Z,21.78
2018-05-06T11:48:05.023Z,21.90
2018-05-06T11:49:05.008Z,21.81
2018-05-06T11:50:06.491Z,21.79
2018-05-06T11:51:04.973Z,21.82
2018-05-06T11:52:04.959Z,21.78
2018-05-06T11:53:04.943Z,21.76
2018-05-06T11:54:04.927Z,21.85
2018-05-06T11:55:04.913Z,22.01
2018-05-06T11:56:04.897Z,22.09
2018-05-06T11:57:04.882Z,22.10
2018-05-06T11:58:04.865Z,22.07
2018-05-06T11:59:04.852Z,22.02
2018-05-06T12:00:04.836Z,21.95
2018-05-06T12:01:04.821Z,21.88
2018-05-06T12:02:04.806Z,21.90
2018-05-06T12:03:04.790Z,22.09
2018-05-06T12:04:04.774Z,22.10
2018-05-06T12:05:04.760Z,22.14
2018-05-06T12:06:04.744Z,22.12
2018-05-06T12:07:04.728Z,22.17
2018-05-06T12:08:04.716Z,22.25
2018-05-06T12:09:04.701Z,22.14
2018-05-06T12:10:04.701Z,22.29
2018-05-06T12:11:04.671Z,22.27
2018-05-06T12:12:04.653Z,22.20
2018-05-06T12:13:04.637Z,22.34
2018-05-06T12:14:04.622Z,22.39
2018-05-06T12:15:04.609Z,22.38
2018-05-06T12:16:04.710Z,22.53
2018-05-06T12:17:04.577Z,22.49
2018-05-06T12:18:04.560Z,22.57
2018-05-06T12:19:04.547Z,22.47
2018-05-06T12:20:04.532Z,22.62
2018-05-06T12:21:04.517Z,22.50
2018-05-06T12:22:04.502Z,22.47
2018-05-06T12:23:04.487Z,22.53
2018-05-06T12:24:04.512Z,22.68
2018-05-06T12:25:04.457Z,22.64
2018-05-06T12:26:04.442Z,22.75
2018-05-06T12:27:04.427Z,22.84
2018-05-06T12:28:04.412Z,22.77
2018-05-06T12:29:04.396Z,22.96
2018-05-06T12:30:04.380Z,22.99
2018-05-06T12:31:04.370Z,23.05
2018-05-06T12:32:04.352Z,23.11
2018-05-06T12:33:04.337Z,23.22
2018-05-06T12:34:04.321Z,23.15
2018-05-06T12:35:04.307Z,23.08
2018-05-06T12:36:04.292Z,23.22
2018-05-06T12:37:04.279Z,23.24
2018-05-06T12:38:04.263Z,23.46
2018-05-06T12:39:07.250Z,23.45
2018-05-06T12:40:04.236Z,23.50
2018-05-06T12:41:04.220Z,23.55
2018-05-06T12:42:04.203Z,23.62
2018-05-06T12:43:04.192Z,23.52
2018-05-06T12:44:04.175Z,23.49
2018-05-06T12:45:04.161Z,23.45
2018-05-06T12:46:04.145Z,23.67
2018-05-06T12:47:04.130Z,23.70
2018-05-06T12:48:04.117Z,23.71
2018-05-06T12:49:04.105Z,23.75
2018-05-06T12:50:04.090Z,23.79
2018-05-06T12:51:04.076Z,23.83
2018-05-06T12:52:04.060Z,23.92